メインページ
METAR-TAF:

METAR-TAF

空港 :

ヘラート, アフガニスタン

緯度: 34-13N, 経度: 062-13E, 海抜: 964m

現時点の気象観測

当レポートは40分前の01:55(UTC)に作成
変向風 2kt
気温 9°C
湿度 81%
気圧 1020 hPa
視程10km以上
高度6000ftの雲はほとんどない
高度8000ftの雲は散在している

METAR: OAHR 240155Z VRB02KT 9999 FEW060 SCT080 09/06 Q1020 RMK A3015 BLU

時間: 07:05 (02:35 UTC)

予報

当レポートは3時間35分前の23:00(UTC)に作成
予報は24日の 00時(UTC)から 24日の 24時(UTC)まで有効
変向風 3kt
高度6000ftの雲は散在している
高度8000ftの千切れ雲あり
24日の 03時(UTC)から 24日の 05時(UTC)まで徐々に
視程10km以上
1,500メートル以下は雲なし、積乱雲なし

TAF: OAHR 232300Z 2400/2424 VRB03KT SCT060 BKN080 BECMG 2403/2405 CAVOK

4,000以上の空港の気象観測と天気予報(METAR報とTAF報)

利用可能な観測所は地図上に黄色い丸と赤い丸で示す。

丸の上にカーソルを重ねると観測所名を参照できる。

次にクリックすると気象観測と天気予報を参照できる。

マップの切り替え:黒色「×」印の緑ボタンをクリックして拡大、「-」印の緑ボタンをクリックして縮小、緑色の三角印をクリックして隣りの地図に切り替え


METAR-TAF: